createdAt,value
2022-11-02T00:00:48.887Z,6.50
2022-11-02T00:03:16.972Z,6.80
2022-11-02T00:05:46.429Z,7.90
2022-11-02T00:08:14.454Z,7.17
2022-11-02T00:10:42.534Z,6.60
2022-11-02T00:13:10.644Z,7.00
2022-11-02T00:15:38.738Z,6.53
2022-11-02T00:18:10.100Z,6.53
2022-11-02T00:20:38.606Z,7.10
2022-11-02T00:23:10.801Z,7.33
2022-11-02T00:25:40.025Z,6.33
2022-11-02T00:28:08.372Z,6.40
2022-11-02T00:30:36.513Z,6.27
2022-11-02T00:33:04.867Z,7.03
2022-11-02T00:35:33.952Z,5.93
2022-11-02T00:38:02.399Z,6.13
2022-11-02T00:40:32.216Z,5.70
2022-11-02T00:43:00.305Z,5.87
2022-11-02T00:45:28.356Z,5.63
2022-11-02T00:47:56.505Z,6.00
2022-11-02T00:50:25.196Z,5.27
2022-11-02T00:52:53.338Z,4.77
2022-11-02T00:55:21.657Z,5.70
2022-11-02T00:57:51.449Z,5.07
2022-11-02T01:00:19.785Z,5.20
2022-11-02T01:02:47.973Z,4.43
2022-11-02T01:05:16.304Z,5.73
2022-11-02T01:07:44.347Z,5.30
2022-11-02T01:10:12.554Z,6.50
2022-11-02T01:12:40.715Z,5.30
2022-11-02T01:15:11.415Z,5.40
2022-11-02T01:17:39.493Z,5.50
2022-11-02T01:20:09.813Z,4.60
2022-11-02T01:22:37.914Z,4.73
2022-11-02T01:25:06.429Z,4.93
2022-11-02T01:27:34.560Z,5.17
2022-11-02T01:30:02.824Z,4.50
2022-11-02T01:32:32.441Z,5.33
2022-11-02T01:35:00.625Z,5.20
2022-11-02T01:37:28.740Z,4.57
2022-11-02T01:39:56.825Z,4.37
2022-11-02T01:42:28.088Z,4.80
2022-11-02T01:44:56.206Z,4.40
2022-11-02T01:47:27.107Z,4.93
2022-11-02T01:49:58.770Z,4.30
2022-11-02T01:52:30.416Z,3.90
2022-11-02T01:55:01.798Z,4.10
2022-11-02T01:57:30.038Z,4.33
2022-11-02T02:00:00.538Z,4.27
2022-11-02T02:02:28.989Z,4.00
2022-11-02T02:05:03.812Z,4.60
2022-11-02T02:07:32.116Z,4.23
2022-11-02T02:10:00.628Z,4.03
2022-11-02T02:12:28.821Z,3.77
2022-11-02T02:14:56.873Z,3.50
2022-11-02T02:17:42.080Z,4.03
2022-11-02T02:20:20.695Z,3.93
2022-11-02T02:23:26.348Z,3.80
2022-11-02T02:26:24.172Z,3.70
2022-11-02T02:28:54.925Z,3.87
2022-11-02T02:31:26.877Z,3.47
2022-11-02T02:33:59.958Z,4.07
2022-11-02T02:36:32.564Z,3.57
2022-11-02T02:39:03.631Z,3.63
2022-11-02T02:41:38.514Z,3.63
2022-11-02T02:44:09.638Z,3.93
2022-11-02T02:46:42.768Z,3.60
2022-11-02T02:49:14.262Z,3.40
2022-11-02T02:51:42.366Z,4.07
2022-11-02T02:54:12.300Z,3.30
2022-11-02T02:56:42.618Z,3.63
2022-11-02T02:59:17.529Z,3.87
2022-11-02T03:01:45.689Z,3.50
2022-11-02T03:04:14.077Z,2.97
2022-11-02T03:06:43.366Z,3.60
2022-11-02T03:09:15.199Z,3.40
2022-11-02T03:11:52.276Z,4.47
2022-11-02T03:14:33.558Z,3.17
2022-11-02T03:17:11.566Z,3.47
2022-11-02T03:19:46.322Z,3.60
2022-11-02T03:22:22.254Z,3.10
2022-11-02T03:24:56.178Z,2.60
2022-11-02T03:27:27.994Z,3.20
2022-11-02T03:30:00.377Z,3.00
2022-11-02T03:32:30.729Z,3.30
2022-11-02T03:35:00.293Z,3.40
2022-11-02T03:37:30.485Z,2.97
2022-11-02T03:40:03.071Z,2.60
2022-11-02T03:42:31.873Z,2.33
2022-11-02T03:45:03.867Z,3.20
2022-11-02T03:47:33.246Z,2.20
2022-11-02T03:50:02.150Z,2.73
2022-11-02T03:52:31.488Z,2.93
2022-11-02T03:55:04.766Z,2.80
2022-11-02T03:57:37.298Z,2.70
2022-11-02T04:00:12.489Z,2.43
2022-11-02T04:02:40.739Z,3.00
2022-11-02T04:05:09.807Z,2.43
2022-11-02T04:07:56.703Z,2.50
2022-11-02T04:10:26.637Z,2.50
2022-11-02T04:13:12.468Z,2.20
2022-11-02T04:15:41.927Z,2.20
2022-11-02T04:18:27.735Z,2.40
2022-11-02T04:20:55.846Z,2.93
2022-11-02T04:23:41.648Z,2.27
2022-11-02T04:26:09.885Z,2.43
2022-11-02T04:28:38.027Z,3.17
2022-11-02T04:31:07.578Z,2.07
2022-11-02T04:33:35.047Z,2.10
2022-11-02T04:36:03.513Z,2.07
2022-11-02T04:38:43.877Z,2.40
2022-11-02T04:41:31.038Z,2.20
2022-11-02T04:43:59.208Z,2.47
2022-11-02T04:46:30.468Z,2.37
2022-11-02T04:48:58.584Z,2.07
2022-11-02T04:51:28.114Z,2.47
2022-11-02T04:53:57.437Z,2.70
2022-11-02T04:56:25.614Z,2.87
2022-11-02T04:58:54.562Z,1.50
2022-11-02T05:01:23.406Z,2.53
2022-11-02T05:03:53.894Z,2.33
2022-11-02T05:06:22.803Z,2.97
2022-11-02T05:08:50.900Z,2.20
2022-11-02T05:11:19.052Z,2.40
2022-11-02T05:13:47.309Z,2.30
2022-11-02T05:16:17.205Z,2.07
2022-11-02T05:18:45.307Z,2.60
2022-11-02T05:21:14.878Z,3.17
2022-11-02T05:23:43.099Z,2.67
2022-11-02T05:26:12.476Z,3.23
2022-11-02T05:28:40.964Z,2.40
2022-11-02T05:31:09.060Z,2.30
2022-11-02T05:33:37.507Z,2.00
2022-11-02T05:36:06.405Z,2.40
2022-11-02T05:38:36.002Z,2.37
2022-11-02T05:41:04.140Z,2.40
2022-11-02T05:43:32.222Z,2.50
2022-11-02T05:46:02.992Z,2.23
2022-11-02T05:48:33.236Z,2.83
2022-11-02T05:51:02.564Z,2.10
2022-11-02T05:53:32.649Z,2.47
2022-11-02T05:56:02.641Z,2.07
2022-11-02T05:58:30.992Z,2.63
2022-11-02T06:01:00.455Z,2.03
2022-11-02T06:03:28.611Z,2.17
2022-11-02T06:05:59.912Z,2.50
2022-11-02T06:08:28.053Z,2.17
2022-11-02T06:10:56.245Z,3.30
2022-11-02T06:13:25.707Z,2.37
2022-11-02T06:15:53.745Z,2.90
2022-11-02T06:18:21.806Z,2.43
2022-11-02T06:20:49.884Z,2.97
2022-11-02T06:23:18.349Z,2.87
2022-11-02T06:25:52.733Z,2.57
2022-11-02T06:28:20.888Z,2.60
2022-11-02T06:30:50.385Z,2.40
2022-11-02T06:33:18.841Z,3.20
2022-11-02T06:35:47.343Z,2.10
2022-11-02T06:38:15.420Z,2.27
2022-11-02T06:40:43.546Z,2.87
2022-11-02T06:43:16.427Z,3.23
2022-11-02T06:45:46.377Z,2.93
2022-11-02T06:48:15.878Z,3.80
2022-11-02T06:50:43.940Z,3.00
2022-11-02T06:53:12.177Z,2.67
2022-11-02T06:55:40.273Z,3.20
2022-11-02T06:58:08.531Z,3.67
2022-11-02T07:00:36.779Z,3.23
2022-11-02T07:03:06.711Z,3.43
2022-11-02T07:05:37.587Z,3.53
2022-11-02T07:08:06.126Z,3.50
2022-11-02T07:10:35.341Z,2.80
2022-11-02T07:13:03.834Z,2.80
2022-11-02T07:15:32.211Z,2.80
2022-11-02T07:18:00.331Z,2.70
2022-11-02T07:20:30.410Z,3.40
2022-11-02T07:23:00.983Z,2.90
2022-11-02T07:25:32.137Z,2.90
2022-11-02T07:28:00.883Z,3.60
2022-11-02T07:30:29.212Z,2.90
2022-11-02T07:32:57.279Z,2.90
2022-11-02T07:35:25.630Z,3.90
2022-11-02T07:37:59.140Z,2.73
2022-11-02T07:40:28.469Z,2.47
2022-11-02T07:42:56.771Z,3.07
2022-11-02T07:45:25.052Z,3.37
2022-11-02T07:47:53.224Z,2.60
2022-11-02T07:50:22.447Z,2.70
2022-11-02T07:52:51.789Z,2.53
2022-11-02T07:55:22.151Z,2.40
2022-11-02T07:57:57.244Z,2.90
2022-11-02T08:00:25.454Z,2.33
2022-11-02T08:02:56.132Z,2.87
2022-11-02T08:05:24.344Z,2.60
2022-11-02T08:07:58.483Z,3.10
2022-11-02T08:10:28.079Z,2.70
2022-11-02T08:12:56.437Z,2.80
2022-11-02T08:15:24.557Z,3.50
2022-11-02T08:18:02.414Z,2.80
2022-11-02T08:20:31.094Z,2.33
2022-11-02T08:22:59.264Z,2.20
2022-11-02T08:25:28.742Z,2.40
2022-11-02T08:27:58.159Z,1.67
2022-11-02T08:30:26.365Z,2.20
2022-11-02T08:32:57.108Z,2.07
2022-11-02T08:35:25.497Z,2.33
2022-11-02T08:37:56.408Z,2.10
2022-11-02T08:40:24.602Z,1.87
2022-11-02T08:42:58.536Z,1.47
2022-11-02T08:45:26.596Z,1.77
2022-11-02T08:47:54.781Z,2.10
2022-11-02T08:50:23.422Z,2.50
2022-11-02T08:52:51.675Z,2.00
2022-11-02T08:55:20.113Z,1.83
2022-11-02T08:57:48.455Z,1.83
2022-11-02T09:00:18.666Z,1.93
2022-11-02T09:02:59.336Z,1.50
2022-11-02T09:05:27.617Z,1.80
2022-11-02T09:08:00.050Z,1.83
2022-11-02T09:10:28.949Z,1.90
2022-11-02T09:12:57.192Z,2.33
2022-11-02T09:15:26.684Z,2.80
2022-11-02T09:17:54.856Z,2.53
2022-11-02T09:20:23.478Z,2.63
2022-11-02T09:22:51.631Z,1.70
2022-11-02T09:25:19.826Z,2.90
2022-11-02T09:27:52.937Z,1.70
2022-11-02T09:30:23.704Z,1.90
2022-11-02T09:33:00.258Z,1.90
2022-11-02T09:35:29.200Z,1.87
2022-11-02T09:37:58.133Z,2.00
2022-11-02T09:40:27.615Z,2.10
2022-11-02T09:43:02.847Z,1.43
2022-11-02T09:45:32.418Z,1.60
2022-11-02T09:48:16.855Z,1.20
2022-11-02T09:50:49.614Z,1.97
2022-11-02T09:53:21.219Z,1.77
2022-11-02T09:55:53.157Z,1.93
2022-11-02T09:58:24.873Z,3.03
2022-11-02T10:00:57.977Z,1.93
2022-11-02T10:03:38.008Z,2.23
2022-11-02T10:06:09.086Z,2.47
2022-11-02T10:08:41.048Z,1.20
2022-11-02T10:11:21.825Z,1.50
2022-11-02T10:13:55.804Z,2.00
2022-11-02T10:16:27.596Z,1.93
2022-11-02T10:18:57.006Z,1.40
2022-11-02T10:21:27.225Z,1.70
2022-11-02T10:23:56.140Z,1.70
2022-11-02T10:26:25.920Z,2.50
2022-11-02T10:28:59.707Z,1.70
2022-11-02T10:31:31.148Z,2.00
2022-11-02T10:34:06.750Z,2.13
2022-11-02T10:36:43.985Z,1.57
2022-11-02T10:39:21.511Z,1.90
2022-11-02T10:42:03.179Z,1.73
2022-11-02T10:44:42.825Z,1.30
2022-11-02T10:47:14.988Z,1.30
2022-11-02T10:50:05.905Z,1.80
2022-11-02T10:52:39.372Z,2.83
2022-11-02T10:55:10.973Z,2.37
2022-11-02T10:57:39.395Z,1.57
2022-11-02T11:00:25.201Z,1.73
2022-11-02T11:03:11.179Z,1.70
2022-11-02T11:06:00.272Z,1.77
2022-11-02T11:08:37.122Z,1.40
2022-11-02T11:11:14.862Z,1.70
2022-11-02T11:16:39.905Z,1.67
2022-11-02T11:22:04.501Z,2.73
2022-11-02T11:24:35.195Z,1.73
2022-11-02T11:27:17.624Z,2.00
2022-11-02T11:29:55.617Z,1.73
2022-11-02T11:32:29.807Z,1.63
2022-11-02T11:35:01.158Z,1.77
2022-11-02T11:37:30.643Z,2.40
2022-11-02T11:40:01.281Z,1.40
2022-11-02T11:42:31.858Z,1.50
2022-11-02T11:45:02.934Z,1.53
2022-11-02T11:47:33.481Z,2.63
2022-11-02T11:50:11.762Z,1.53
2022-11-02T11:52:48.472Z,1.87
2022-11-02T11:55:23.142Z,2.80
2022-11-02T11:58:07.135Z,1.67
2022-11-02T12:00:35.718Z,1.30
2022-11-02T12:03:06.199Z,1.30
2022-11-02T12:05:42.621Z,1.63
2022-11-02T12:08:28.435Z,1.47
2022-11-02T12:11:08.945Z,1.87
2022-11-02T12:13:58.177Z,1.37
2022-11-02T12:16:34.006Z,2.30
2022-11-02T12:19:21.061Z,1.93
2022-11-02T12:21:58.015Z,1.80
2022-11-02T12:25:03.207Z,1.80
2022-11-02T12:27:38.798Z,1.23
2022-11-02T12:30:18.412Z,2.30
2022-11-02T12:33:15.082Z,1.50
2022-11-02T12:36:06.073Z,2.07
2022-11-02T12:38:53.765Z,1.43
2022-11-02T12:41:43.038Z,2.00
2022-11-02T12:44:23.101Z,2.17
2022-11-02T12:46:56.869Z,1.90
2022-11-02T12:49:36.522Z,1.47
2022-11-02T12:52:12.700Z,1.50
2022-11-02T12:54:43.302Z,2.13
2022-11-02T12:57:15.371Z,2.27
2022-11-02T12:59:44.239Z,2.20
2022-11-02T13:02:14.790Z,2.07
2022-11-02T13:04:47.842Z,1.43
2022-11-02T13:07:19.363Z,1.97
2022-11-02T13:09:53.345Z,1.70
2022-11-02T13:12:24.314Z,1.50
2022-11-02T13:14:54.270Z,1.63
2022-11-02T13:17:24.306Z,1.07
2022-11-02T13:19:54.833Z,1.20
2022-11-02T13:22:28.245Z,1.30
2022-11-02T13:24:58.540Z,1.17
2022-11-02T13:27:36.346Z,1.13
2022-11-02T13:30:07.681Z,1.20
2022-11-02T13:32:37.881Z,1.20
2022-11-02T13:35:13.802Z,1.10
2022-11-02T13:37:44.021Z,1.50
2022-11-02T13:40:16.993Z,1.57
2022-11-02T13:43:18.128Z,1.33
2022-11-02T13:46:00.547Z,1.33
2022-11-02T13:48:49.317Z,1.10
2022-11-02T13:51:25.011Z,1.37
2022-11-02T13:53:55.760Z,1.00
2022-11-02T13:56:25.989Z,1.10
2022-11-02T13:59:03.291Z,1.23
2022-11-02T14:01:33.393Z,1.17
2022-11-02T14:04:05.746Z,1.57
2022-11-02T14:06:35.422Z,1.20
2022-11-02T14:09:05.187Z,1.57
2022-11-02T14:11:46.477Z,1.30
2022-11-02T14:14:24.080Z,1.37
2022-11-02T14:17:15.670Z,0.80
2022-11-02T14:19:53.641Z,1.67
2022-11-02T14:22:22.086Z,1.60
2022-11-02T14:25:15.723Z,1.27
2022-11-02T14:27:44.323Z,1.87
2022-11-02T14:30:45.620Z,2.07
2022-11-02T14:33:50.037Z,1.67
2022-11-02T14:36:33.153Z,1.20
2022-11-02T14:39:07.561Z,1.20
2022-11-02T14:42:09.094Z,1.40
2022-11-02T14:44:57.784Z,1.30
2022-11-02T14:47:30.425Z,1.10
2022-11-02T14:50:00.967Z,1.40
2022-11-02T14:52:29.830Z,1.10
2022-11-02T14:55:02.716Z,1.40
2022-11-02T14:57:32.818Z,1.27
2022-11-02T15:00:03.667Z,1.70
2022-11-02T15:02:37.362Z,1.80
2022-11-02T15:05:09.147Z,1.20
2022-11-02T15:07:41.195Z,1.27
2022-11-02T15:10:43.305Z,1.27
2022-11-02T15:13:35.314Z,1.40
2022-11-02T15:16:25.908Z,1.30
2022-11-02T15:18:56.005Z,1.30
2022-11-02T15:21:28.788Z,1.70
2022-11-02T15:24:13.904Z,1.43
2022-11-02T15:26:52.733Z,1.03
2022-11-02T15:29:36.462Z,1.00
2022-11-02T15:32:06.859Z,1.60
2022-11-02T15:34:42.045Z,1.00
2022-11-02T15:37:13.664Z,1.33
2022-11-02T15:39:41.765Z,1.80
2022-11-02T15:42:17.267Z,1.70
2022-11-02T15:45:26.963Z,1.63
2022-11-02T15:48:12.511Z,1.40
2022-11-02T15:50:50.070Z,1.37
2022-11-02T15:53:28.393Z,1.53
2022-11-02T15:56:08.417Z,1.10
2022-11-02T15:58:45.417Z,2.00
2022-11-02T16:01:19.672Z,1.40
2022-11-02T16:03:48.694Z,1.50
2022-11-02T16:06:25.290Z,1.50
2022-11-02T16:08:53.389Z,2.30
2022-11-02T16:11:21.611Z,5.67
2022-11-02T16:14:08.043Z,2.93
2022-11-02T16:16:47.845Z,2.57
2022-11-02T16:19:20.295Z,2.60
2022-11-02T16:21:49.867Z,2.60
2022-11-02T16:24:18.137Z,2.93
2022-11-02T16:26:46.462Z,2.20
2022-11-02T16:29:23.834Z,2.47
2022-11-02T16:31:52.562Z,1.60
2022-11-02T16:34:22.556Z,1.60
2022-11-02T16:36:52.054Z,2.40
2022-11-02T16:39:23.280Z,1.70
2022-11-02T16:41:52.596Z,2.00
2022-11-02T16:44:24.953Z,1.80
2022-11-02T16:46:55.977Z,2.40
2022-11-02T16:49:24.520Z,2.20
2022-11-02T16:51:55.222Z,2.30
2022-11-02T16:54:40.809Z,2.20
2022-11-02T16:57:14.389Z,2.23
2022-11-02T16:59:50.997Z,2.70
2022-11-02T17:02:19.160Z,3.30
2022-11-02T17:04:47.668Z,2.30
2022-11-02T17:07:21.899Z,1.83
2022-11-02T17:09:52.024Z,2.13
2022-11-02T17:12:20.154Z,1.87
2022-11-02T17:14:48.809Z,1.80
2022-11-02T17:17:39.350Z,2.23
2022-11-02T17:20:24.451Z,3.03
2022-11-02T17:22:56.963Z,2.23
2022-11-02T17:25:26.880Z,1.70
2022-11-02T17:27:55.967Z,2.20
2022-11-02T17:30:44.463Z,2.50
2022-11-02T17:33:23.444Z,2.40
2022-11-02T17:35:52.468Z,2.50
2022-11-02T17:38:25.315Z,2.47
2022-11-02T17:40:53.788Z,2.57
2022-11-02T17:43:21.191Z,2.60
2022-11-02T17:45:55.892Z,2.30
2022-11-02T17:48:24.514Z,2.13
2022-11-02T17:50:54.635Z,3.63
2022-11-02T17:53:24.224Z,2.40
2022-11-02T17:55:52.320Z,2.80
2022-11-02T17:58:20.422Z,7.27
2022-11-02T18:00:48.542Z,4.17
2022-11-02T18:03:19.392Z,3.10
2022-11-02T18:05:50.160Z,2.80
2022-11-02T18:08:20.477Z,2.87
2022-11-02T18:10:51.884Z,3.03
2022-11-02T18:13:21.026Z,3.20
2022-11-02T18:15:49.222Z,3.73
2022-11-02T18:18:17.320Z,4.00
2022-11-02T18:20:45.798Z,2.93
2022-11-02T18:23:16.041Z,3.53
2022-11-02T18:25:44.167Z,4.00
2022-11-02T18:28:13.952Z,3.63
2022-11-02T18:30:44.071Z,3.10
2022-11-02T18:33:13.644Z,17.00
2022-11-02T18:35:43.267Z,40.33
2022-11-02T18:38:11.834Z,31.30
2022-11-02T18:40:39.935Z,26.40
2022-11-02T18:43:08.444Z,17.73
2022-11-02T18:45:38.220Z,11.63
2022-11-02T18:48:07.325Z,7.30
2022-11-02T18:50:35.527Z,5.40
2022-11-02T18:53:03.659Z,4.10
2022-11-02T18:55:31.772Z,4.30
2022-11-02T18:57:59.885Z,3.27
2022-11-02T19:00:27.979Z,4.60
2022-11-02T19:02:57.460Z,4.77
2022-11-02T19:05:43.248Z,4.03
2022-11-02T19:08:28.874Z,6.17
2022-11-02T19:10:56.992Z,8.80
2022-11-02T19:13:25.103Z,33.17
2022-11-02T19:15:53.193Z,21.23
2022-11-02T19:18:22.625Z,14.37
2022-11-02T19:20:50.714Z,10.90
2022-11-02T19:23:18.801Z,9.93
2022-11-02T19:25:51.924Z,10.20
2022-11-02T19:28:20.036Z,10.77
2022-11-02T19:30:48.115Z,9.43
2022-11-02T19:33:16.251Z,7.93
2022-11-02T19:35:57.120Z,7.90
2022-11-02T19:38:25.268Z,9.40
2022-11-02T19:41:02.417Z,7.80
2022-11-02T19:43:30.534Z,11.63
2022-11-02T19:46:02.270Z,10.50
2022-11-02T19:48:31.391Z,36.40
2022-11-02T19:51:08.316Z,26.07
2022-11-02T19:53:36.551Z,23.90
2022-11-02T19:56:05.293Z,21.00
2022-11-02T19:58:33.422Z,18.90
2022-11-02T20:01:08.599Z,15.20
2022-11-02T20:03:36.923Z,11.40
2022-11-02T20:06:08.328Z,9.50
2022-11-02T20:08:36.530Z,9.00
2022-11-02T20:11:05.689Z,8.10
2022-11-02T20:13:34.630Z,8.47
2022-11-02T20:16:02.758Z,9.77
2022-11-02T20:18:30.882Z,9.70
2022-11-02T20:21:06.370Z,9.40
2022-11-02T20:23:34.467Z,8.63
2022-11-02T20:26:03.149Z,7.10
2022-11-02T20:28:31.489Z,7.33
2022-11-02T20:30:59.674Z,6.40
2022-11-02T20:33:27.753Z,5.37
2022-11-02T20:35:55.830Z,5.80
2022-11-02T20:38:25.274Z,5.93
2022-11-02T20:40:53.396Z,6.00
2022-11-02T20:43:21.484Z,6.63
2022-11-02T20:45:49.569Z,6.87
2022-11-02T20:48:17.929Z,7.10
2022-11-02T20:50:46.103Z,6.30
2022-11-02T20:53:14.346Z,4.90
2022-11-02T20:55:43.758Z,10.30
2022-11-02T20:58:11.945Z,17.93
2022-11-02T21:04:46.725Z,8.83
2022-11-02T21:07:14.817Z,6.27
2022-11-02T21:09:42.868Z,5.43
2022-11-02T21:12:31.786Z,5.23
2022-11-02T21:14:59.913Z,5.40
2022-11-02T21:17:28.055Z,4.90
2022-11-02T21:19:58.264Z,4.40
2022-11-02T21:22:43.280Z,5.90
2022-11-02T21:25:12.486Z,5.93
2022-11-02T21:27:42.263Z,5.43
2022-11-02T21:30:11.744Z,5.40
2022-11-02T21:32:40.194Z,6.33
2022-11-02T21:35:09.521Z,5.27
2022-11-02T21:37:37.635Z,4.90
2022-11-02T21:40:07.118Z,4.27
2022-11-02T21:42:35.222Z,5.10
2022-11-02T21:45:05.584Z,5.40
2022-11-02T21:47:35.078Z,7.17
2022-11-02T21:50:03.259Z,5.60
2022-11-02T21:52:31.325Z,5.17
2022-11-02T21:54:59.491Z,4.73
2022-11-02T21:57:27.572Z,4.83
2022-11-02T21:59:55.989Z,4.63
2022-11-02T22:02:24.660Z,4.00
2022-11-02T22:04:53.625Z,4.50
2022-11-02T22:07:21.813Z,4.43
2022-11-02T22:09:49.953Z,4.77
2022-11-02T22:12:35.754Z,4.33
2022-11-02T22:15:04.524Z,4.47
2022-11-02T22:17:49.002Z,4.20
2022-11-02T22:20:18.127Z,4.13
2022-11-02T22:22:46.645Z,4.50
2022-11-02T22:25:14.851Z,4.70
2022-11-02T22:27:42.980Z,4.50
2022-11-02T22:30:12.786Z,5.03
2022-11-02T22:32:42.237Z,4.83
2022-11-02T22:35:10.888Z,4.50
2022-11-02T22:37:56.872Z,4.33
2022-11-02T22:40:24.933Z,4.90
2022-11-02T22:42:55.949Z,4.10
2022-11-02T22:45:24.079Z,3.80
2022-11-02T22:47:53.533Z,4.50
2022-11-02T22:50:23.792Z,5.00
2022-11-02T22:52:56.026Z,3.93
2022-11-02T22:55:24.119Z,4.20
2022-11-02T22:57:59.659Z,4.60
2022-11-02T23:00:28.220Z,3.87
2022-11-02T23:02:57.606Z,4.90
2022-11-02T23:05:25.727Z,3.80
2022-11-02T23:07:53.896Z,4.37
2022-11-02T23:10:35.943Z,3.97
2022-11-02T23:13:04.421Z,4.53
2022-11-02T23:15:32.802Z,3.40
2022-11-02T23:18:02.226Z,3.37
2022-11-02T23:20:29.726Z,3.60
2022-11-02T23:23:17.975Z,3.50
2022-11-02T23:25:46.024Z,4.10
2022-11-02T23:28:31.373Z,4.50
2022-11-02T23:31:22.173Z,4.30
2022-11-02T23:33:51.657Z,3.50
2022-11-02T23:36:20.417Z,3.57
2022-11-02T23:39:21.396Z,4.67
2022-11-02T23:41:49.498Z,2.80
2022-11-02T23:44:19.016Z,3.17
2022-11-02T23:46:48.626Z,3.57
2022-11-02T23:49:19.275Z,3.47
2022-11-02T23:52:05.092Z,3.70
2022-11-02T23:54:50.659Z,3.47
2022-11-02T23:57:20.243Z,3.57
2022-11-02T23:59:48.329Z,3.03
